Time;durP1;ratioP1;P1;durP2;ratioP2;P2;SDS_P1;SDS_P2;PMS_P1;PMS_P2;Temp;Humidity;BMP_temperature;BMP_pressure;BME280_temperature;BME280_humidity;BME280_pressure;Samples;Min_cycle;Max_cycle;Signal;HPM_P1;HPM_P2
2022/06/04 00:00:26;;;;;;;8.73;5.62;;;;;;;;;;4462652;32;20204;-57
2022/06/04 00:02:52;;;;;;;9.10;6.00;;;;;;;;;;4448939;32;20239;-58
2022/06/04 00:05:27;;;;;;;9.18;6.15;;;;;;;;;;4448987;32;20222;-57
2022/06/04 00:07:54;;;;;;;10.25;6.68;;;;;;;;;;4451267;32;20236;-58
2022/06/04 00:15:57;;;;;;;8.05;5.60;;;;;;;;;;4448347;32;20310;-57
2022/06/04 00:18:24;;;;;;;10.45;7.10;;;;;;;;;;4448556;32;20284;-58
2022/06/04 00:20:51;;;;;;;9.27;6.07;;;;;;;;;;4448445;32;20239;-58
2022/06/04 00:23:17;;;;;;;11.77;6.20;;;;;;;;;;4448410;32;20196;-58
2022/06/04 00:25:47;;;;;;;9.70;6.35;;;;;;;;;;4448624;32;20564;-57
2022/06/04 00:28:13;;;;;;;10.30;5.95;;;;;;;;;;4448841;32;20228;-57
2022/06/04 00:30:40;;;;;;;8.75;5.60;;;;;;;;;;4448545;32;20647;-57
2022/06/04 00:33:06;;;;;;;9.90;6.53;;;;;;;;;;4448533;32;20212;-57
2022/06/04 00:35:31;;;;;;;7.40;6.60;;;;;;;;;;4448636;32;20261;-58
2022/06/04 00:37:57;;;;;;;11.70;6.80;;;;;;;;;;4448511;32;20313;-58
2022/06/04 00:40:50;;;;;;;12.45;7.32;;;;;;;;;;4448199;32;20197;-58
2022/06/04 00:43:18;;;;;;;12.65;7.60;;;;;;;;;;4448596;32;20180;-57
2022/06/04 00:46:20;;;;;;;10.32;7.32;;;;;;;;;;4448164;32;20251;-57
2022/06/04 00:48:46;;;;;;;15.25;7.05;;;;;;;;;;4448439;32;20276;-57
2022/06/04 00:51:12;;;;;;;8.40;6.75;;;;;;;;;;4448321;32;20343;-57
2022/06/04 00:53:39;;;;;;;8.57;6.68;;;;;;;;;;4447918;32;20634;-57
2022/06/04 00:56:22;;;;;;;15.45;7.55;;;;;;;;;;4455842;32;20251;-57
2022/06/04 00:58:56;;;;;;;12.45;7.30;;;;;;;;;;4464092;32;20711;-56
2022/06/04 01:01:26;;;;;;;8.65;6.30;;;;;;;;;;4453923;32;20586;-56
2022/06/04 01:04:48;;;;;;;12.88;6.65;;;;;;;;;;4451497;32;20200;-56
2022/06/04 01:07:32;;;;;;;13.02;7.55;;;;;;;;;;4450997;32;20651;-56
2022/06/04 01:10:14;;;;;;;12.95;6.85;;;;;;;;;;4450837;32;20232;-56
2022/06/04 01:12:49;;;;;;;13.45;7.15;;;;;;;;;;4450088;32;20240;-56
2022/06/04 01:15:20;;;;;;;7.50;6.80;;;;;;;;;;4450901;32;20291;-57
2022/06/04 01:18:10;;;;;;;10.18;7.28;;;;;;;;;;4451163;32;20521;-56
2022/06/04 01:20:50;;;;;;;12.57;6.70;;;;;;;;;;4451087;32;20686;-56
2022/06/04 01:23:30;;;;;;;8.77;6.70;;;;;;;;;;4450724;32;20230;-56
2022/06/04 01:26:05;;;;;;;10.13;7.32;;;;;;;;;;4451024;32;20234;-56
2022/06/04 01:28:32;;;;;;;7.80;6.62;;;;;;;;;;4451179;32;20611;-56
2022/06/04 01:31:04;;;;;;;9.90;7.20;;;;;;;;;;4450597;32;20483;-56
2022/06/04 01:33:36;;;;;;;11.82;7.45;;;;;;;;;;4450981;32;20700;-56
2022/06/04 01:36:10;;;;;;;14.85;8.40;;;;;;;;;;4450839;32;20212;-56
2022/06/04 01:38:54;;;;;;;7.95;7.15;;;;;;;;;;4451023;32;20192;-56
2022/06/04 01:41:53;;;;;;;12.60;7.50;;;;;;;;;;4450931;32;20254;-56
2022/06/04 01:44:24;;;;;;;12.18;7.15;;;;;;;;;;4439353;32;20220;-56
2022/06/04 01:46:54;;;;;;;12.70;7.18;;;;;;;;;;4450800;32;20333;-57
2022/06/04 01:49:46;;;;;;;12.35;7.62;;;;;;;;;;4450763;32;20235;-56
2022/06/04 01:52:20;;;;;;;10.00;6.55;;;;;;;;;;4447323;32;20768;-56
2022/06/04 01:55:04;;;;;;;10.38;7.18;;;;;;;;;;4450762;32;20572;-56
2022/06/04 01:57:41;;;;;;;11.60;7.03;;;;;;;;;;4450695;32;20290;-56
2022/06/04 02:00:20;;;;;;;14.98;6.62;;;;;;;;;;4450493;32;20299;-56
2022/06/04 02:02:57;;;;;;;10.18;7.18;;;;;;;;;;4450724;32;20232;-56
2022/06/04 02:05:32;;;;;;;12.65;8.35;;;;;;;;;;4450731;32;20224;-56
2022/06/04 02:08:01;;;;;;;12.40;9.80;;;;;;;;;;4453311;32;20223;-56
2022/06/04 02:10:32;;;;;;;11.82;8.70;;;;;;;;;;4452800;32;20324;-57
2022/06/04 02:13:01;;;;;;;13.27;9.60;;;;;;;;;;4450368;32;20379;-57
2022/06/04 02:15:40;;;;;;;12.10;9.13;;;;;;;;;;4450032;32;20318;-57
2022/06/04 02:18:07;;;;;;;11.52;8.82;;;;;;;;;;4450578;32;20564;-57
2022/06/04 02:20:33;;;;;;;9.25;8.10;;;;;;;;;;4450167;32;20209;-57
2022/06/04 02:22:58;;;;;;;10.43;8.15;;;;;;;;;;4450116;32;20247;-57
2022/06/04 02:25:24;;;;;;;10.50;6.78;;;;;;;;;;4450268;32;20212;-57
2022/06/04 02:27:51;;;;;;;14.25;7.75;;;;;;;;;;4450426;32;20243;-57
2022/06/04 02:30:17;;;;;;;11.90;6.87;;;;;;;;;;4450051;32;20650;-57
2022/06/04 02:32:47;;;;;;;9.05;6.70;;;;;;;;;;4450373;32;20237;-57
2022/06/04 02:35:36;;;;;;;10.23;7.07;;;;;;;;;;4450399;32;20652;-58
2022/06/04 02:38:04;;;;;;;8.60;6.95;;;;;;;;;;4449863;32;20296;-58
2022/06/04 02:41:09;;;;;;;8.10;6.70;;;;;;;;;;4450149;32;20242;-57
2022/06/04 02:43:43;;;;;;;13.20;6.15;;;;;;;;;;4418225;32;20224;-57
2022/06/04 02:46:33;;;;;;;11.80;7.18;;;;;;;;;;4450012;32;20205;-57
2022/06/04 02:49:05;;;;;;;14.38;6.40;;;;;;;;;;4449671;32;20247;-57
2022/06/04 02:51:36;;;;;;;8.57;6.57;;;;;;;;;;4451793;32;20254;-57
2022/06/04 02:54:08;;;;;;;9.43;7.47;;;;;;;;;;4465166;32;20705;-57
2022/06/04 02:56:34;;;;;;;13.65;8.55;;;;;;;;;;4464827;32;20240;-57
2022/06/04 02:59:05;;;;;;;18.37;9.77;;;;;;;;;;4464886;32;20580;-57
2022/06/04 03:01:36;;;;;;;22.65;8.50;;;;;;;;;;4450902;32;20252;-57
2022/06/04 03:04:04;;;;;;;10.38;7.28;;;;;;;;;;4449809;32;20213;-57
2022/06/04 03:06:31;;;;;;;14.98;8.38;;;;;;;;;;4449040;32;20310;-57
2022/06/04 03:08:58;;;;;;;11.95;8.30;;;;;;;;;;4446466;32;20393;-57
2022/06/04 03:11:23;;;;;;;15.27;7.80;;;;;;;;;;4447177;32;20274;-57
2022/06/04 03:13:49;;;;;;;14.98;7.82;;;;;;;;;;4445994;32;20644;-59
2022/06/04 03:16:16;;;;;;;10.15;8.48;;;;;;;;;;4445730;32;20550;-57
2022/06/04 03:18:42;;;;;;;12.85;7.85;;;;;;;;;;4446695;32;20228;-57
2022/06/04 03:21:08;;;;;;;9.10;7.43;;;;;;;;;;4446967;32;20333;-57
2022/06/04 03:23:34;;;;;;;17.33;7.55;;;;;;;;;;4447506;32;20280;-57
2022/06/04 03:26:00;;;;;;;9.15;7.12;;;;;;;;;;4449154;32;20238;-58
2022/06/04 03:28:25;;;;;;;12.50;8.35;;;;;;;;;;4447582;32;20236;-57
2022/06/04 03:30:51;;;;;;;13.13;7.43;;;;;;;;;;4448829;32;20204;-57
2022/06/04 03:33:16;;;;;;;12.85;8.07;;;;;;;;;;4448876;32;20291;-57
2022/06/04 03:35:43;;;;;;;13.40;7.80;;;;;;;;;;4448474;32;20568;-57
2022/06/04 03:38:09;;;;;;;10.57;8.55;;;;;;;;;;4449319;32;20307;-57
2022/06/04 03:40:35;;;;;;;10.88;7.00;;;;;;;;;;4449335;32;20640;-57
2022/06/04 03:43:00;;;;;;;10.50;7.57;;;;;;;;;;4449040;32;20254;-57
2022/06/04 03:45:26;;;;;;;9.82;8.00;;;;;;;;;;4448857;32;20503;-56
2022/06/04 03:47:56;;;;;;;13.73;8.38;;;;;;;;;;4449148;32;20565;-58
2022/06/04 03:50:22;;;;;;;22.02;8.32;;;;;;;;;;4449026;32;20616;-57
2022/06/04 03:52:49;;;;;;;13.35;8.35;;;;;;;;;;4459035;32;20470;-56
2022/06/04 03:55:16;;;;;;;9.95;7.80;;;;;;;;;;4464098;32;20612;-56
2022/06/04 03:57:50;;;;;;;14.20;8.38;;;;;;;;;;4464290;32;20253;-57
2022/06/04 04:00:32;;;;;;;10.80;7.78;;;;;;;;;;4464160;32;20238;-57
2022/06/04 04:03:17;;;;;;;12.85;8.57;;;;;;;;;;4463997;32;20299;-57
2022/06/04 04:05:51;;;;;;;9.48;8.07;;;;;;;;;;4464022;32;20253;-56
2022/06/04 04:08:17;;;;;;;11.93;8.68;;;;;;;;;;4458913;32;20212;-58
2022/06/04 04:10:44;;;;;;;17.58;9.02;;;;;;;;;;4448527;32;20271;-56
2022/06/04 04:13:11;;;;;;;10.65;8.80;;;;;;;;;;4448729;32;20303;-57
2022/06/04 04:15:38;;;;;;;15.85;7.85;;;;;;;;;;4448243;32;20341;-56
2022/06/04 04:18:05;;;;;;;14.00;7.80;;;;;;;;;;4448740;32;20236;-57
2022/06/04 04:20:32;;;;;;;11.20;7.65;;;;;;;;;;4447791;32;20295;-57
2022/06/04 04:22:59;;;;;;;10.18;7.90;;;;;;;;;;4448338;32;20225;-57
2022/06/04 04:25:27;;;;;;;11.45;8.10;;;;;;;;;;4448569;32;20231;-57
2022/06/04 04:27:53;;;;;;;14.63;8.45;;;;;;;;;;4448470;32;20274;-57
2022/06/04 04:30:21;;;;;;;16.52;9.00;;;;;;;;;;4448233;32;20577;-57
2022/06/04 04:32:48;;;;;;;13.57;9.82;;;;;;;;;;4448532;32;20358;-57
2022/06/04 04:35:20;;;;;;;11.00;8.63;;;;;;;;;;4449666;32;20209;-57
2022/06/04 04:37:45;;;;;;;9.65;7.82;;;;;;;;;;4451472;32;20283;-57
2022/06/04 04:40:14;;;;;;;10.23;7.87;;;;;;;;;;4451527;32;20200;-57
2022/06/04 04:42:40;;;;;;;15.48;8.32;;;;;;;;;;4451597;32;20609;-57
2022/06/04 04:45:09;;;;;;;10.73;8.55;;;;;;;;;;4451245;32;20339;-57
2022/06/04 04:47:40;;;;;;;13.88;8.55;;;;;;;;;;4450326;32;20262;-56
2022/06/04 04:50:11;;;;;;;16.00;8.63;;;;;;;;;;4451199;32;20543;-56
2022/06/04 04:52:36;;;;;;;12.02;8.90;;;;;;;;;;4451338;32;20299;-57
2022/06/04 04:55:02;;;;;;;12.88;9.50;;;;;;;;;;4452375;32;20346;-57
2022/06/04 04:57:28;;;;;;;11.45;8.98;;;;;;;;;;4466573;32;20255;-56
2022/06/04 04:59:53;;;;;;;23.02;10.55;;;;;;;;;;4466694;32;20275;-57
2022/06/04 05:02:18;;;;;;;10.80;8.57;;;;;;;;;;4466262;32;20699;-57
2022/06/04 05:04:44;;;;;;;13.15;8.52;;;;;;;;;;4466549;32;20333;-57
2022/06/04 05:07:12;;;;;;;10.07;9.07;;;;;;;;;;4459276;32;20291;-57
2022/06/04 05:09:39;;;;;;;15.60;9.50;;;;;;;;;;4464513;32;20312;-56
2022/06/04 05:12:06;;;;;;;16.12;9.57;;;;;;;;;;4464988;32;20324;-57
2022/06/04 05:14:31;;;;;;;12.20;10.00;;;;;;;;;;4466419;32;20205;-57
2022/06/04 05:16:57;;;;;;;20.85;12.50;;;;;;;;;;4466219;32;20290;-57
2022/06/04 05:19:23;;;;;;;19.65;13.10;;;;;;;;;;4466325;32;20677;-57
2022/06/04 05:21:52;;;;;;;18.17;11.55;;;;;;;;;;4465917;32;20576;-57
2022/06/04 05:24:21;;;;;;;14.32;9.32;;;;;;;;;;4466375;32;20314;-57
2022/06/04 05:26:48;;;;;;;19.27;9.90;;;;;;;;;;4465866;32;20346;-57
2022/06/04 05:29:14;;;;;;;15.05;9.55;;;;;;;;;;4465195;32;20296;-57
2022/06/04 05:31:40;;;;;;;9.45;8.50;;;;;;;;;;4465054;32;20232;-57
2022/06/04 05:34:07;;;;;;;11.85;8.57;;;;;;;;;;4465035;32;20216;-57
2022/06/04 05:36:35;;;;;;;13.40;8.80;;;;;;;;;;4464630;32;20295;-57
2022/06/04 05:39:01;;;;;;;11.85;8.25;;;;;;;;;;4464987;32;20234;-57
2022/06/04 05:41:26;;;;;;;10.10;8.73;;;;;;;;;;4462433;32;20232;-57
2022/06/04 05:43:53;;;;;;;11.57;8.30;;;;;;;;;;4464472;32;20279;-57
2022/06/04 05:46:20;;;;;;;14.57;8.45;;;;;;;;;;4464402;32;20278;-57
2022/06/04 05:48:46;;;;;;;12.20;8.60;;;;;;;;;;4464939;32;20728;-57
2022/06/04 05:51:15;;;;;;;20.27;8.63;;;;;;;;;;4464006;32;20327;-56
2022/06/04 05:53:41;;;;;;;11.00;7.75;;;;;;;;;;4449014;32;20251;-56
2022/06/04 05:56:21;;;;;;;13.70;8.95;;;;;;;;;;4457077;32;20298;-56
2022/06/04 05:58:47;;;;;;;10.00;8.38;;;;;;;;;;4460566;32;20525;-56
2022/06/04 06:01:14;;;;;;;14.15;9.40;;;;;;;;;;4453697;32;20624;-57
2022/06/04 06:03:40;;;;;;;10.65;8.90;;;;;;;;;;4455386;32;20240;-57
2022/06/04 06:06:12;;;;;;;20.70;8.85;;;;;;;;;;4448233;32;20285;-57
2022/06/04 06:08:37;;;;;;;15.60;8.85;;;;;;;;;;4456392;32;20275;-56
2022/06/04 06:11:09;;;;;;;17.73;9.20;;;;;;;;;;4464208;32;20227;-57
2022/06/04 06:13:35;;;;;;;13.93;8.57;;;;;;;;;;4464925;32;20219;-57
2022/06/04 06:16:09;;;;;;;16.10;9.35;;;;;;;;;;4461828;32;20224;-57
2022/06/04 06:18:35;;;;;;;12.35;9.32;;;;;;;;;;4449154;32;20239;-56
2022/06/04 06:21:13;;;;;;;12.52;8.95;;;;;;;;;;4448776;32;20217;-56
2022/06/04 06:23:39;;;;;;;11.77;9.25;;;;;;;;;;4449031;32;20196;-57
2022/06/04 06:26:13;;;;;;;16.77;8.98;;;;;;;;;;4448964;32;20226;-58
2022/06/04 06:28:41;;;;;;;18.45;8.95;;;;;;;;;;4449868;32;20200;-57
2022/06/04 06:31:08;;;;;;;10.07;8.05;;;;;;;;;;4449674;32;20241;-58
2022/06/04 06:33:34;;;;;;;10.30;8.57;;;;;;;;;;4455387;32;20306;-58
2022/06/04 06:36:02;;;;;;;13.52;9.40;;;;;;;;;;4464732;32;20228;-57
2022/06/04 06:38:28;;;;;;;11.12;7.80;;;;;;;;;;4465187;32;20635;-58
2022/06/04 06:40:56;;;;;;;11.10;8.95;;;;;;;;;;4463922;32;20201;-57
2022/06/04 06:43:23;;;;;;;13.82;8.30;;;;;;;;;;4456453;32;20205;-58
2022/06/04 06:45:49;;;;;;;19.17;9.07;;;;;;;;;;4459311;32;20728;-58
2022/06/04 06:48:15;;;;;;;18.30;9.10;;;;;;;;;;4449407;32;20263;-58
2022/06/04 06:50:42;;;;;;;12.77;8.00;;;;;;;;;;4442256;32;20263;-58
2022/06/04 06:53:09;;;;;;;11.77;8.45;;;;;;;;;;4462060;32;20713;-57
2022/06/04 06:55:34;;;;;;;12.07;8.10;;;;;;;;;;4459823;32;20645;-58
2022/06/04 06:58:00;;;;;;;13.43;9.07;;;;;;;;;;4448583;32;20259;-58
2022/06/04 07:00:25;;;;;;;17.58;8.80;;;;;;;;;;4459006;32;20280;-58
2022/06/04 07:02:51;;;;;;;12.90;9.10;;;;;;;;;;4464882;32;20620;-58
2022/06/04 07:05:16;;;;;;;12.70;8.00;;;;;;;;;;4463123;32;20471;-58
2022/06/04 07:07:42;;;;;;;20.88;9.45;;;;;;;;;;4454462;32;20795;-57
2022/06/04 07:10:09;;;;;;;13.05;8.32;;;;;;;;;;4454011;32;20254;-57
2022/06/04 07:12:35;;;;;;;11.02;8.48;;;;;;;;;;4465135;32;20208;-57
2022/06/04 07:15:00;;;;;;;15.38;8.30;;;;;;;;;;4455457;32;20278;-57
2022/06/04 07:17:26;;;;;;;12.68;8.10;;;;;;;;;;4450688;32;20228;-57
2022/06/04 07:19:51;;;;;;;10.80;8.48;;;;;;;;;;4450124;32;20282;-57
2022/06/04 07:22:17;;;;;;;10.50;8.88;;;;;;;;;;4450598;32;20316;-58
2022/06/04 07:24:43;;;;;;;15.73;8.70;;;;;;;;;;4463449;32;20287;-58
2022/06/04 07:27:09;;;;;;;10.00;7.70;;;;;;;;;;4462284;32;20346;-57
2022/06/04 07:29:35;;;;;;;13.55;7.90;;;;;;;;;;4464562;32;20417;-57
2022/06/04 07:32:03;;;;;;;14.48;7.72;;;;;;;;;;4463527;32;20296;-58
2022/06/04 07:34:29;;;;;;;15.93;8.77;;;;;;;;;;4452782;32;20216;-57
2022/06/04 07:36:54;;;;;;;15.63;8.75;;;;;;;;;;4460305;32;20634;-58
2022/06/04 07:39:20;;;;;;;10.40;8.20;;;;;;;;;;4446709;32;20605;-57
2022/06/04 07:41:53;;;;;;;17.65;7.82;;;;;;;;;;4451253;32;20224;-57
2022/06/04 07:44:20;;;;;;;11.32;8.10;;;;;;;;;;4462113;32;20254;-57
2022/06/04 07:46:47;;;;;;;15.07;8.68;;;;;;;;;;4461916;32;20220;-57
2022/06/04 07:49:13;;;;;;;10.82;8.77;;;;;;;;;;4461895;32;20204;-57
2022/06/04 07:51:40;;;;;;;10.15;8.13;;;;;;;;;;4453485;32;20715;-57
2022/06/04 07:54:09;;;;;;;11.88;7.82;;;;;;;;;;4464027;32;20218;-57
2022/06/04 07:56:36;;;;;;;11.52;7.60;;;;;;;;;;4463703;32;20575;-57
2022/06/04 07:59:03;;;;;;;10.57;7.65;;;;;;;;;;4463996;32;20547;-57
2022/06/04 08:01:30;;;;;;;15.15;8.90;;;;;;;;;;4462962;32;20395;-57
2022/06/04 08:03:56;;;;;;;12.70;7.85;;;;;;;;;;4463615;32;20199;-57
2022/06/04 08:06:22;;;;;;;11.38;8.65;;;;;;;;;;4463730;32;20265;-57
2022/06/04 08:08:54;;;;;;;11.05;8.95;;;;;;;;;;4455208;32;20345;-57
2022/06/04 08:11:33;;;;;;;14.73;8.95;;;;;;;;;;4448343;32;20213;-57
2022/06/04 08:14:21;;;;;;;24.30;8.80;;;;;;;;;;4448167;32;20192;-57
2022/06/04 08:16:56;;;;;;;9.40;8.25;;;;;;;;;;4448408;32;20331;-57
2022/06/04 08:19:24;;;;;;;11.23;7.32;;;;;;;;;;4448277;32;20237;-57
2022/06/04 08:21:50;;;;;;;12.93;9.05;;;;;;;;;;4448210;32;20341;-58
2022/06/04 08:24:17;;;;;;;16.10;8.00;;;;;;;;;;4448440;32;20249;-57
2022/06/04 08:26:45;;;;;;;15.38;8.75;;;;;;;;;;4448084;32;20584;-57
2022/06/04 08:29:11;;;;;;;12.23;7.85;;;;;;;;;;4448274;32;20197;-57
2022/06/04 08:31:37;;;;;;;8.68;7.55;;;;;;;;;;4448527;32;20217;-57
2022/06/04 08:34:03;;;;;;;12.32;8.05;;;;;;;;;;4447925;32;20259;-59
2022/06/04 08:36:29;;;;;;;16.92;7.57;;;;;;;;;;4447898;32;20606;-58
2022/06/04 08:38:55;;;;;;;13.23;8.50;;;;;;;;;;4448253;32;20272;-58
2022/06/04 08:41:32;;;;;;;17.55;8.02;;;;;;;;;;4448164;32;20216;-57
2022/06/04 08:44:19;;;;;;;9.40;7.55;;;;;;;;;;4448082;32;20289;-58
2022/06/04 08:46:54;;;;;;;12.48;8.32;;;;;;;;;;4448382;32;20319;-58
2022/06/04 08:49:32;;;;;;;11.32;7.35;;;;;;;;;;4447459;32;20223;-58
2022/06/04 08:52:00;;;;;;;9.15;7.78;;;;;;;;;;4448048;32;20638;-58
2022/06/04 09:00:07;;;;;;;16.90;8.05;;;;;;;;;;4463361;32;20278;-58
2022/06/04 09:02:40;;;;;;;12.10;7.53;;;;;;;;;;4463498;32;20512;-57
2022/06/04 09:05:24;;;;;;;13.43;7.10;;;;;;;;;;4463511;32;20200;-57
2022/06/04 09:07:54;;;;;;;23.48;7.68;;;;;;;;;;4462297;32;20362;-57
2022/06/04 09:10:34;;;;;;;12.45;7.57;;;;;;;;;;4463513;32;20276;-57
2022/06/04 09:13:27;;;;;;;8.40;6.93;;;;;;;;;;4463531;32;20216;-57
2022/06/04 09:15:55;;;;;;;20.50;7.53;;;;;;;;;;4463364;32;20226;-57
2022/06/04 09:18:38;;;;;;;11.77;6.53;;;;;;;;;;4463615;32;20631;-57
2022/06/04 09:21:09;;;;;;;12.07;7.07;;;;;;;;;;4465176;32;20197;-56
2022/06/04 09:23:34;;;;;;;8.95;5.97;;;;;;;;;;4466478;32;20249;-56
2022/06/04 09:26:15;;;;;;;10.10;6.45;;;;;;;;;;4465365;32;20283;-57
2022/06/04 09:28:45;;;;;;;9.60;7.07;;;;;;;;;;4466276;32;20256;-56
2022/06/04 09:31:33;;;;;;;10.25;6.60;;;;;;;;;;4465477;32;20560;-56
2022/06/04 09:34:08;;;;;;;12.65;5.93;;;;;;;;;;4464732;32;20239;-57
2022/06/04 09:36:36;;;;;;;8.55;6.78;;;;;;;;;;4450621;32;20326;-57
2022/06/04 09:39:19;;;;;;;8.77;6.85;;;;;;;;;;4448921;32;20227;-57
2022/06/04 09:41:56;;;;;;;8.65;6.05;;;;;;;;;;4457052;32;20551;-57
2022/06/04 09:44:23;;;;;;;6.62;5.95;;;;;;;;;;4466191;32;20176;-56
2022/06/04 09:46:59;;;;;;;8.45;6.10;;;;;;;;;;4465904;32;20236;-57
2022/06/04 09:49:52;;;;;;;11.15;5.90;;;;;;;;;;4452290;32;20204;-57
2022/06/04 09:52:38;;;;;;;16.08;5.80;;;;;;;;;;4450318;32;20300;-57
2022/06/04 09:55:24;;;;;;;7.75;6.55;;;;;;;;;;4448190;32;20224;-57
2022/06/04 09:57:58;;;;;;;10.68;7.30;;;;;;;;;;4450567;32;20294;-59
2022/06/04 10:00:27;;;;;;;15.80;6.93;;;;;;;;;;4450308;32;20582;-57
2022/06/04 10:03:12;;;;;;;8.00;5.87;;;;;;;;;;4450246;32;20655;-58
2022/06/04 10:05:48;;;;;;;9.73;6.32;;;;;;;;;;4449662;32;20700;-58
2022/06/04 10:08:14;;;;;;;10.15;6.50;;;;;;;;;;4449544;32;20274;-58
2022/06/04 10:10:43;;;;;;;8.50;6.43;;;;;;;;;;4449859;32;20196;-58
2022/06/04 10:16:16;;;;;;;8.68;6.07;;;;;;;;;;4449903;32;20671;-57
2022/06/04 10:18:52;;;;;;;11.80;7.20;;;;;;;;;;4450048;32;20196;-57
2022/06/04 10:21:20;;;;;;;11.60;6.68;;;;;;;;;;4450350;32;20672;-57
2022/06/04 10:23:48;;;;;;;8.55;7.03;;;;;;;;;;4449860;32;20192;-58
2022/06/04 10:26:13;;;;;;;12.25;6.32;;;;;;;;;;4449768;32;20270;-57
2022/06/04 10:29:04;;;;;;;16.73;6.80;;;;;;;;;;4450340;32;20568;-57
2022/06/04 10:31:48;;;;;;;9.70;6.35;;;;;;;;;;4449151;32;20649;-58
2022/06/04 10:34:16;;;;;;;10.70;6.72;;;;;;;;;;4452582;32;20200;-57
2022/06/04 10:36:59;;;;;;;13.05;6.40;;;;;;;;;;4465093;32;20403;-57
2022/06/04 10:39:35;;;;;;;19.00;6.37;;;;;;;;;;4465741;32;20183;-57
2022/06/04 10:42:38;;;;;;;7.07;6.00;;;;;;;;;;4457518;32;20715;-57
2022/06/04 10:45:16;;;;;;;12.30;6.10;;;;;;;;;;4448519;32;20224;-57
2022/06/04 10:47:54;;;;;;;7.03;5.70;;;;;;;;;;4450241;32;20639;-58
2022/06/04 10:50:25;;;;;;;10.07;7.03;;;;;;;;;;4449752;32;20624;-57
2022/06/04 10:53:04;;;;;;;11.63;6.07;;;;;;;;;;4450039;32;20278;-57
2022/06/04 10:55:35;;;;;;;8.70;5.35;;;;;;;;;;4449063;32;20221;-57
2022/06/04 10:58:21;;;;;;;8.10;6.32;;;;;;;;;;4450142;32;20256;-56
2022/06/04 11:00:53;;;;;;;10.45;5.18;;;;;;;;;;4449560;32;20322;-56
2022/06/04 11:03:41;;;;;;;6.30;5.00;;;;;;;;;;4449518;32;20181;-57
2022/06/04 11:06:26;;;;;;;6.80;4.90;;;;;;;;;;4449419;32;20269;-57
2022/06/04 11:09:01;;;;;;;6.70;4.07;;;;;;;;;;4448691;32;20228;-58
2022/06/04 11:11:53;;;;;;;9.00;4.28;;;;;;;;;;4448914;32;20364;-58
2022/06/04 11:14:40;;;;;;;5.80;4.43;;;;;;;;;;4453649;32;20236;-58
2022/06/04 11:17:14;;;;;;;9.57;5.00;;;;;;;;;;4453458;32;20583;-58
2022/06/04 11:19:53;;;;;;;5.57;4.70;;;;;;;;;;4449827;32;20240;-58
2022/06/04 11:22:26;;;;;;;9.40;5.28;;;;;;;;;;4465432;32;20640;-57
2022/06/04 11:25:24;;;;;;;11.68;5.22;;;;;;;;;;4464971;32;20305;-57
2022/06/04 11:27:56;;;;;;;5.82;4.32;;;;;;;;;;4464830;32;20236;-58
2022/06/04 11:30:47;;;;;;;6.60;4.62;;;;;;;;;;4449260;32;20236;-58
2022/06/04 11:33:28;;;;;;;13.35;5.97;;;;;;;;;;4431022;32;20235;-58
2022/06/04 11:36:24;;;;;;;9.15;4.87;;;;;;;;;;4448008;32;20216;-57
2022/06/04 11:39:25;;;;;;;18.67;5.75;;;;;;;;;;4446570;32;20181;-57
2022/06/04 11:42:29;;;;;;;6.50;4.90;;;;;;;;;;4436165;32;20292;-57
2022/06/04 11:45:04;;;;;;;7.85;4.60;;;;;;;;;;4422280;32;20299;-57
2022/06/04 11:47:48;;;;;;;8.60;5.07;;;;;;;;;;4462850;32;20275;-57
2022/06/04 11:50:23;;;;;;;6.97;4.93;;;;;;;;;;4464137;32;20196;-57
2022/06/04 11:53:07;;;;;;;5.95;4.85;;;;;;;;;;4453647;32;20297;-57
2022/06/04 11:55:40;;;;;;;10.70;5.03;;;;;;;;;;4453081;32;20212;-57
2022/06/04 11:58:50;;;;;;;8.07;4.78;;;;;;;;;;4464591;32;20593;-57
2022/06/04 12:01:20;;;;;;;5.90;4.45;;;;;;;;;;4441233;32;20295;-57
2022/06/04 12:03:52;;;;;;;11.30;4.37;;;;;;;;;;4463779;32;20207;-57
2022/06/04 12:06:23;;;;;;;10.57;5.20;;;;;;;;;;4464344;32;20252;-57
2022/06/04 12:09:10;;;;;;;5.28;3.90;;;;;;;;;;4455776;32;20197;-57
2022/06/04 12:11:57;;;;;;;10.27;3.75;;;;;;;;;;4447853;32;20337;-57
2022/06/04 12:14:49;;;;;;;11.18;4.78;;;;;;;;;;4448698;32;20184;-57
2022/06/04 12:17:24;;;;;;;9.30;3.97;;;;;;;;;;4449077;32;20208;-57
2022/06/04 12:25:41;;;;;;;8.15;4.15;;;;;;;;;;4464047;32;20283;-56
2022/06/04 12:28:29;;;;;;;6.20;4.05;;;;;;;;;;4464242;32;20279;-57
2022/06/04 12:30:56;;;;;;;11.48;4.00;;;;;;;;;;4462738;32;20389;-57
2022/06/04 12:33:36;;;;;;;8.23;3.37;;;;;;;;;;4463482;32;20201;-57
2022/06/04 12:36:04;;;;;;;5.43;3.58;;;;;;;;;;4463759;32;20231;-57
2022/06/04 12:38:37;;;;;;;7.43;3.20;;;;;;;;;;4462292;32;20246;-57
2022/06/04 12:41:10;;;;;;;7.72;4.03;;;;;;;;;;4463823;32;20536;-56
2022/06/04 12:43:38;;;;;;;8.60;4.35;;;;;;;;;;4464225;32;20201;-57
2022/06/04 12:46:21;;;;;;;6.93;3.62;;;;;;;;;;4448418;32;20234;-57
2022/06/04 12:48:56;;;;;;;9.68;3.75;;;;;;;;;;4458777;32;20211;-57
2022/06/04 12:51:34;;;;;;;6.70;4.87;;;;;;;;;;4462375;32;20355;-57
2022/06/04 12:54:05;;;;;;;4.40;3.40;;;;;;;;;;4448496;32;20208;-57
2022/06/04 12:56:35;;;;;;;8.93;4.18;;;;;;;;;;4460889;32;20228;-57
2022/06/04 12:59:04;;;;;;;5.72;3.95;;;;;;;;;;4466320;32;20271;-57
2022/06/04 13:01:29;;;;;;;8.98;4.28;;;;;;;;;;4466427;32;20639;-57
2022/06/04 13:04:10;;;;;;;4.40;3.30;;;;;;;;;;4466469;32;20278;-58
2022/06/04 13:06:55;;;;;;;7.57;3.60;;;;;;;;;;4466887;32;20266;-57
2022/06/04 13:10:09;;;;;;;8.20;3.83;;;;;;;;;;4466720;32;20383;-57
2022/06/04 13:12:40;;;;;;;4.70;3.50;;;;;;;;;;4456301;32;20558;-56
2022/06/04 13:15:05;;;;;;;9.23;3.80;;;;;;;;;;4466844;32;20219;-57
2022/06/04 13:17:34;;;;;;;7.35;3.58;;;;;;;;;;4466637;32;20315;-57
2022/06/04 13:20:28;;;;;;;5.28;3.75;;;;;;;;;;4466512;32;20293;-57
2022/06/04 13:23:23;;;;;;;14.00;4.12;;;;;;;;;;4463372;32;20412;-57
2022/06/04 13:26:01;;;;;;;6.18;3.40;;;;;;;;;;4449498;32;20292;-57
2022/06/04 13:28:35;;;;;;;9.77;3.33;;;;;;;;;;4461302;32;20280;-57
2022/06/04 13:31:01;;;;;;;5.85;3.75;;;;;;;;;;4466372;32;20211;-57
2022/06/04 13:33:27;;;;;;;7.80;3.65;;;;;;;;;;4457621;32;20291;-57
2022/06/04 13:35:54;;;;;;;11.65;6.22;;;;;;;;;;4450639;32;20200;-56
2022/06/04 13:38:32;;;;;;;9.30;3.65;;;;;;;;;;4450888;32;20200;-56
2022/06/04 13:41:00;;;;;;;5.55;3.00;;;;;;;;;;4456131;32;20587;-56
2022/06/04 13:43:26;;;;;;;5.57;3.70;;;;;;;;;;4466416;32;20231;-57
2022/06/04 13:45:51;;;;;;;5.53;3.45;;;;;;;;;;4466411;32;20212;-56
2022/06/04 13:48:25;;;;;;;13.15;3.45;;;;;;;;;;4466040;32;20639;-57
2022/06/04 13:50:53;;;;;;;6.87;4.40;;;;;;;;;;4466084;32;20690;-57
2022/06/04 13:53:23;;;;;;;5.82;3.45;;;;;;;;;;4451979;32;20301;-56
2022/06/04 13:56:09;;;;;;;7.62;2.75;;;;;;;;;;4456630;32;20264;-57
2022/06/04 13:58:38;;;;;;;8.20;3.72;;;;;;;;;;4456190;32;20239;-57
2022/06/04 14:01:08;;;;;;;7.22;4.47;;;;;;;;;;4461154;32;20208;-56
2022/06/04 14:03:38;;;;;;;8.13;5.22;;;;;;;;;;4451853;32;20216;-56
2022/06/04 14:06:04;;;;;;;7.70;5.20;;;;;;;;;;4451941;32;20643;-57
2022/06/04 14:08:33;;;;;;;17.77;5.70;;;;;;;;;;4457432;32;20330;-57
2022/06/04 14:11:26;;;;;;;12.02;5.47;;;;;;;;;;4448371;32;20288;-57
2022/06/04 14:14:29;;;;;;;14.48;5.87;;;;;;;;;;4450159;32;20204;-57
2022/06/04 14:17:09;;;;;;;14.20;5.25;;;;;;;;;;4449155;32;20258;-57
2022/06/04 14:19:41;;;;;;;12.93;5.10;;;;;;;;;;4450157;32;20214;-57
2022/06/04 14:22:29;;;;;;;10.52;5.93;;;;;;;;;;4449840;32;20227;-57
2022/06/04 14:25:09;;;;;;;7.50;4.72;;;;;;;;;;4450076;32;20224;-56
2022/06/04 14:27:52;;;;;;;12.10;5.95;;;;;;;;;;4449984;32;20577;-57
2022/06/04 14:30:21;;;;;;;14.73;5.75;;;;;;;;;;4449799;32;20364;-57
2022/06/04 14:32:52;;;;;;;8.15;5.10;;;;;;;;;;4458711;32;20445;-57
2022/06/04 14:35:28;;;;;;;5.43;4.47;;;;;;;;;;4465220;32;20287;-57
2022/06/04 14:38:06;;;;;;;8.68;5.22;;;;;;;;;;4453899;32;20232;-57
2022/06/04 14:41:12;;;;;;;6.90;4.87;;;;;;;;;;4449950;32;20216;-57
2022/06/04 14:43:49;;;;;;;9.40;5.37;;;;;;;;;;4433019;32;20318;-57
2022/06/04 14:46:59;;;;;;;9.15;4.55;;;;;;;;;;4449029;32;20247;-57
2022/06/04 14:49:37;;;;;;;12.60;4.47;;;;;;;;;;4429686;32;20208;-57
2022/06/04 14:52:31;;;;;;;8.43;4.70;;;;;;;;;;4449287;32;20315;-57
2022/06/04 14:55:06;;;;;;;13.40;5.05;;;;;;;;;;4450485;32;20379;-57
2022/06/04 14:58:01;;;;;;;8.35;4.15;;;;;;;;;;4465165;32;20215;-57
2022/06/04 15:00:46;;;;;;;6.40;4.30;;;;;;;;;;4465295;32;20474;-58
2022/06/04 15:03:24;;;;;;;8.43;4.82;;;;;;;;;;4464704;32;20246;-57
2022/06/04 15:06:13;;;;;;;11.93;4.87;;;;;;;;;;4464865;32;20211;-58
2022/06/04 15:08:44;;;;;;;16.90;3.78;;;;;;;;;;4457760;32;20212;-57
2022/06/04 15:11:22;;;;;;;6.93;4.10;;;;;;;;;;4449357;32;20339;-58
2022/06/04 15:14:12;;;;;;;12.20;4.43;;;;;;;;;;4449695;32;20309;-57
2022/06/04 15:17:00;;;;;;;12.25;4.32;;;;;;;;;;4448719;32;20295;-57
2022/06/04 15:19:28;;;;;;;17.60;4.43;;;;;;;;;;4448939;32;20200;-57
2022/06/04 15:22:02;;;;;;;5.80;3.45;;;;;;;;;;4449131;32;20255;-57
2022/06/04 15:25:00;;;;;;;5.80;3.25;;;;;;;;;;4449455;32;20297;-57
2022/06/04 15:27:37;;;;;;;17.92;4.75;;;;;;;;;;4407434;32;21104;-57
2022/06/04 15:36:13;;;;;;;6.95;3.37;;;;;;;;;;4448684;32;20296;-57